Time;durP1;ratioP1;P1;durP2;ratioP2;P2;SDS_P1;SDS_P2;PMS_P1;PMS_P2;Temp;Humidity;BMP_temperature;BMP_pressure;BME280_temperature;BME280_humidity;BME280_pressure;Samples;Min_cycle;Max_cycle;Signal;HPM_P1;HPM_P2
2022/12/21 00:01:30;;;;;;;10.40;9.40;;;;;;;7.82;100.00;96610.47;4974652;28;20185;-67
2022/12/21 00:04:02;;;;;;;11.20;10.27;;;;;;;7.93;100.00;96609.78;4956646;28;20384;-67
2022/12/21 00:06:30;;;;;;;9.80;9.00;;;;;;;7.89;100.00;96613.84;4955224;29;20164;-67
2022/12/21 00:08:59;;;;;;;11.13;10.13;;;;;;;7.92;100.00;96614.19;4954876;28;20202;-66
2022/12/21 00:11:25;;;;;;;11.67;9.43;;;;;;;7.92;100.00;96613.41;4955157;29;20192;-67
2022/12/21 00:13:52;;;;;;;10.60;9.67;;;;;;;8.00;100.00;96612.34;4955164;29;20189;-67
2022/12/21 00:16:21;;;;;;;11.83;10.83;;;;;;;7.99;100.00;96611.53;4955106;29;20177;-67
2022/12/21 00:18:46;;;;;;;12.27;11.07;;;;;;;7.88;100.00;96610.44;4954881;28;20166;-67
2022/12/21 00:21:14;;;;;;;13.20;12.00;;;;;;;7.80;100.00;96618.50;4954897;29;20224;-67
2022/12/21 00:23:41;;;;;;;13.70;12.70;;;;;;;7.71;100.00;96603.34;4954900;29;20173;-67
2022/12/21 00:26:07;;;;;;;17.77;16.33;;;;;;;7.62;100.00;96605.44;4936880;29;20260;-66
2022/12/21 00:28:33;;;;;;;17.13;15.50;;;;;;;7.45;100.00;96601.72;4954637;28;20161;-67
2022/12/21 00:31:13;;;;;;;19.03;17.43;;;;;;;7.49;100.00;96613.34;4954600;29;20173;-66
2022/12/21 00:33:40;;;;;;;16.73;15.23;;;;;;;7.43;100.00;96601.94;4954649;29;20565;-66
2022/12/21 00:36:08;;;;;;;13.73;12.50;;;;;;;7.47;100.00;96604.91;4954601;29;20189;-66
2022/12/21 00:38:34;;;;;;;12.83;11.53;;;;;;;7.41;100.00;96605.78;4954684;28;20165;-67
2022/12/21 00:41:02;;;;;;;15.40;14.20;;;;;;;7.32;100.00;96604.41;4954369;29;20169;-66
2022/12/21 00:43:29;;;;;;;12.87;11.67;;;;;;;7.28;100.00;96598.84;4954424;29;20193;-67
2022/12/21 00:45:55;;;;;;;13.47;12.13;;;;;;;7.34;100.00;96599.81;4954344;29;20165;-67
2022/12/21 00:48:20;;;;;;;12.37;10.60;;;;;;;7.19;100.00;96599.31;4952545;29;20564;-67
2022/12/21 00:50:47;;;;;;;12.60;11.40;;;;;;;7.18;100.00;96595.88;4954395;28;20256;-66
2022/12/21 00:53:15;;;;;;;11.73;10.00;;;;;;;7.13;100.00;96597.53;4936884;29;20192;-67
2022/12/21 00:55:41;;;;;;;10.60;9.60;;;;;;;7.19;100.00;96594.84;4936953;29;20315;-66
2022/12/21 00:58:06;;;;;;;11.57;10.37;;;;;;;7.06;100.00;96589.75;4953518;28;20240;-67
2022/12/21 01:00:31;;;;;;;10.80;9.60;;;;;;;7.02;100.00;96591.19;4954256;28;20200;-66
2022/12/21 01:02:57;;;;;;;9.93;8.93;;;;;;;7.13;100.00;96598.34;4951687;28;20252;-66
2022/12/21 01:05:22;;;;;;;11.07;9.93;;;;;;;7.18;100.00;96598.50;4954057;29;20161;-67
2022/12/21 01:07:48;;;;;;;12.97;11.00;;;;;;;7.16;100.00;96597.09;4954127;29;20166;-67
2022/12/21 01:10:14;;;;;;;12.57;10.00;;;;;;;7.06;100.00;96598.38;4954366;28;20193;-67
2022/12/21 01:12:39;;;;;;;11.90;10.77;;;;;;;6.97;100.00;96594.38;4954501;29;20169;-67
2022/12/21 01:15:05;;;;;;;14.87;10.60;;;;;;;6.97;100.00;96599.59;4954227;29;20539;-67
2022/12/21 01:17:31;;;;;;;10.93;9.93;;;;;;;6.95;100.00;96600.81;4936844;29;20290;-67
2022/12/21 01:19:56;;;;;;;11.63;10.07;;;;;;;6.80;100.00;96601.06;4954210;28;20201;-67
2022/12/21 01:22:22;;;;;;;11.97;10.77;;;;;;;7.06;100.00;96600.97;4954102;29;20165;-67
2022/12/21 01:24:47;;;;;;;11.07;9.97;;;;;;;6.90;100.00;96595.44;4954119;29;20165;-67
2022/12/21 01:27:13;;;;;;;12.00;9.67;;;;;;;6.88;100.00;96595.63;4954069;29;20555;-66
2022/12/21 01:29:38;;;;;;;13.50;9.77;;;;;;;6.88;100.00;96600.03;4954055;28;20204;-66
2022/12/21 01:32:05;;;;;;;11.77;10.57;;;;;;;6.79;100.00;96611.72;4954350;29;20166;-67
2022/12/21 01:34:30;;;;;;;11.67;9.87;;;;;;;6.82;100.00;96614.69;4954120;29;20276;-67
2022/12/21 01:36:56;;;;;;;12.13;11.00;;;;;;;6.80;100.00;96603.69;4953819;29;20635;-67
2022/12/21 01:39:22;;;;;;;11.70;10.50;;;;;;;7.01;100.00;96597.38;4956285;28;20610;-66
2022/12/21 01:41:47;;;;;;;11.07;9.77;;;;;;;6.92;100.00;96598.63;4957790;29;20578;-66
2022/12/21 01:44:47;;;;;;;11.07;9.30;;;;;;;6.79;100.00;96604.72;4957534;29;20195;-67
2022/12/21 01:47:17;;;;;;;10.50;9.43;;;;;;;6.99;100.00;96600.19;4955780;29;20185;-66
2022/12/21 01:49:45;;;;;;;10.17;9.37;;;;;;;6.92;100.00;96589.00;4957500;28;20208;-67
2022/12/21 01:52:13;;;;;;;10.53;9.53;;;;;;;6.99;100.00;96589.78;4957578;29;20192;-66
2022/12/21 01:54:52;;;;;;;10.77;9.87;;;;;;;7.04;100.00;96582.13;4957961;29;20209;-66
2022/12/21 01:57:17;;;;;;;10.93;10.03;;;;;;;7.15;100.00;96583.25;4957802;28;20212;-67
2022/12/21 01:59:50;;;;;;;11.63;10.47;;;;;;;7.09;100.00;96584.09;4957321;28;20347;-66
2022/12/21 02:02:30;;;;;;;11.77;10.67;;;;;;;7.33;100.00;96572.94;4942468;28;20181;-66
2022/12/21 02:05:06;;;;;;;10.70;9.80;;;;;;;7.36;100.00;96577.72;4956480;28;20236;-66
2022/12/21 02:07:31;;;;;;;10.53;9.50;;;;;;;7.46;100.00;96567.63;4976671;28;20184;-66
2022/12/21 02:09:58;;;;;;;9.53;8.53;;;;;;;7.53;100.00;96564.94;4976230;28;20200;-66
2022/12/21 02:12:24;;;;;;;7.70;7.03;;;;;;;7.58;100.00;96575.53;4976554;28;20173;-66
2022/12/21 02:14:50;;;;;;;7.83;7.13;;;;;;;7.64;100.00;96573.88;4976386;28;20185;-67
2022/12/21 02:17:24;;;;;;;7.43;6.90;;;;;;;7.65;100.00;96575.50;4976294;28;20248;-66
2022/12/21 02:20:23;;;;;;;7.97;7.40;;;;;;;7.77;100.00;96568.56;4976280;28;20207;-67
2022/12/21 02:23:10;;;;;;;8.13;7.30;;;;;;;7.73;100.00;96576.03;4976209;28;20173;-67
2022/12/21 02:25:46;;;;;;;7.73;7.07;;;;;;;7.74;100.00;96567.22;4976302;28;20169;-67
2022/12/21 02:28:25;;;;;;;7.67;7.07;;;;;;;7.70;100.00;96573.03;4976355;28;20175;-67
2022/12/21 02:31:02;;;;;;;8.43;7.63;;;;;;;7.73;100.00;96573.44;4976016;28;20196;-66
2022/12/21 02:34:00;;;;;;;8.67;7.40;;;;;;;7.69;100.00;96567.03;4975971;28;20176;-66
2022/12/21 02:36:47;;;;;;;8.63;7.73;;;;;;;7.76;100.00;96570.38;4922982;28;20262;-67
2022/12/21 02:39:26;;;;;;;7.27;6.43;;;;;;;7.70;100.00;96562.59;4975697;28;20299;-67
2022/12/21 02:44:12;;;;;;;7.20;6.60;;;;;;;7.72;100.00;96553.56;4926067;28;20228;-66
2022/12/21 02:45:21;;;;;;;7.47;6.83;;;;;;;7.69;100.00;96564.41;4957778;28;20573;-66
2022/12/21 02:47:54;;;;;;;7.07;6.57;;;;;;;7.71;100.00;96561.59;4970732;28;20197;-66
2022/12/21 02:50:29;;;;;;;6.97;6.27;;;;;;;7.73;100.00;96564.81;4975184;28;20212;-67
2022/12/21 02:52:59;;;;;;;8.13;7.43;;;;;;;7.76;100.00;96562.56;4975522;28;20184;-66
2022/12/21 02:55:26;;;;;;;7.40;6.77;;;;;;;7.78;100.00;96564.97;4975620;28;20217;-67
2022/12/21 02:58:18;;;;;;;7.23;6.57;;;;;;;7.80;100.00;96548.06;4957532;28;20192;-67
2022/12/21 03:00:52;;;;;;;8.47;7.00;;;;;;;7.84;100.00;96551.88;4975569;28;20283;-66
2022/12/21 03:03:47;;;;;;;6.63;5.93;;;;;;;7.84;100.00;96545.84;4972949;28;20317;-66
2022/12/21 03:06:42;;;;;;;7.60;6.57;;;;;;;7.78;100.00;96549.31;4974925;28;20247;-66
2022/12/21 03:09:50;;;;;;;6.97;6.33;;;;;;;7.83;100.00;96544.25;4975503;28;20200;-66
2022/12/21 03:12:34;;;;;;;6.50;6.00;;;;;;;7.83;100.00;96555.47;4961071;28;20169;-66
2022/12/21 03:15:15;;;;;;;7.37;6.57;;;;;;;7.83;100.00;96547.66;4975266;28;20205;-67
2022/12/21 03:17:48;;;;;;;6.73;6.17;;;;;;;7.87;100.00;96546.19;4957630;28;20267;-66
2022/12/21 03:20:24;;;;;;;6.83;6.23;;;;;;;7.80;100.00;96545.47;4975012;28;20214;-66
2022/12/21 03:22:55;;;;;;;7.23;6.50;;;;;;;7.82;100.00;96546.06;4975154;28;20161;-67
2022/12/21 03:25:24;;;;;;;6.30;5.80;;;;;;;7.85;100.00;96552.66;4975259;28;20165;-67
2022/12/21 03:27:53;;;;;;;6.83;6.23;;;;;;;7.90;100.00;96551.00;4975130;28;20165;-66
2022/12/21 03:30:21;;;;;;;7.00;6.30;;;;;;;7.85;100.00;96542.22;4974976;28;20279;-67
2022/12/21 03:33:02;;;;;;;7.60;6.80;;;;;;;7.89;100.00;96559.03;4974910;28;20249;-67
2022/12/21 03:35:44;;;;;;;9.50;7.13;;;;;;;7.86;100.00;96538.59;4967530;28;20201;-66
2022/12/21 03:38:18;;;;;;;7.73;6.93;;;;;;;7.87;100.00;96538.38;4974921;28;20180;-66
2022/12/21 03:40:50;;;;;;;7.07;6.40;;;;;;;7.92;100.00;96538.53;4974803;28;20214;-66
2022/12/21 03:43:27;;;;;;;6.67;6.13;;;;;;;7.87;100.00;96542.78;4974512;28;20176;-66
2022/12/21 03:45:57;;;;;;;6.43;6.00;;;;;;;7.84;100.00;96543.22;4972947;28;20192;-66
2022/12/21 03:48:35;;;;;;;7.20;6.57;;;;;;;7.84;100.00;96527.56;4974559;28;20632;-66
2022/12/21 03:51:06;;;;;;;7.33;6.63;;;;;;;7.87;100.00;96535.75;4972688;28;20267;-66
2022/12/21 03:53:47;;;;;;;7.30;6.70;;;;;;;7.87;100.00;96530.53;4968605;28;20243;-66
2022/12/21 03:56:19;;;;;;;7.13;6.57;;;;;;;7.91;100.00;96523.88;4967898;28;20212;-66
2022/12/21 03:58:44;;;;;;;7.30;6.70;;;;;;;7.83;100.00;96521.56;4973717;28;20188;-66
2022/12/21 04:01:28;;;;;;;6.90;6.33;;;;;;;7.81;100.00;96518.34;4973037;28;20188;-66
2022/12/21 04:03:59;;;;;;;6.47;6.07;;;;;;;7.82;100.00;96513.94;4966546;28;20291;-66
2022/12/21 04:06:31;;;;;;;7.23;6.37;;;;;;;7.83;100.00;96511.13;4974188;28;20185;-66
2022/12/21 04:08:57;;;;;;;6.97;6.13;;;;;;;7.86;100.00;96507.28;4958531;28;20769;-67
2022/12/21 04:14:07;;;;;;;5.73;5.37;;;;;;;7.89;100.00;96509.47;4960895;28;20176;-67
2022/12/21 04:16:32;;;;;;;6.53;5.93;;;;;;;7.88;100.00;96510.47;4954580;29;20170;-66
2022/12/21 04:21:41;;;;;;;5.90;5.50;;;;;;;7.92;100.00;96515.03;4968538;28;20588;-67
2022/12/21 04:29:36;;;;;;;7.00;6.37;;;;;;;7.95;100.00;96519.03;4971763;28;20762;-66
2022/12/21 04:32:02;;;;;;;6.57;6.07;;;;;;;7.94;100.00;96509.59;4973925;28;20263;-66
2022/12/21 04:34:27;;;;;;;5.90;5.50;;;;;;;7.98;100.00;96507.34;4973828;28;20254;-66
2022/12/21 04:39:36;;;;;;;8.10;6.60;;;;;;;8.08;100.00;96511.06;4973780;28;20283;-66
2022/12/21 04:42:02;;;;;;;6.33;5.60;;;;;;;8.07;100.00;96512.09;4973978;28;20252;-66
2022/12/21 04:44:27;;;;;;;7.20;6.60;;;;;;;8.00;100.00;96513.97;4956626;28;20180;-66
2022/12/21 04:46:53;;;;;;;7.10;6.47;;;;;;;8.05;100.00;96514.13;4955274;28;20215;-67
2022/12/21 04:49:18;;;;;;;7.37;6.63;;;;;;;8.08;100.00;96510.28;4954501;29;20228;-67
2022/12/21 04:51:44;;;;;;;7.77;7.17;;;;;;;8.12;100.00;96508.81;4954448;29;20214;-66
2022/12/21 04:54:09;;;;;;;7.03;6.53;;;;;;;8.11;100.00;96505.41;4954518;29;20264;-66
2022/12/21 04:56:34;;;;;;;8.60;7.73;;;;;;;8.11;100.00;96509.84;4954108;28;20200;-66
2022/12/21 04:59:00;;;;;;;7.33;6.80;;;;;;;8.06;100.00;96507.09;4954555;29;20216;-66
2022/12/21 05:01:25;;;;;;;8.13;7.27;;;;;;;8.06;100.00;96507.88;4954500;29;20181;-66
2022/12/21 05:03:51;;;;;;;9.20;7.47;;;;;;;8.05;100.00;96511.50;4959316;28;20237;-66
2022/12/21 05:06:18;;;;;;;7.77;7.13;;;;;;;8.10;100.00;96506.44;4973812;28;20544;-66
2022/12/21 05:08:44;;;;;;;8.47;7.77;;;;;;;8.10;100.00;96511.66;4973610;28;20168;-66
2022/12/21 05:11:19;;;;;;;8.43;7.67;;;;;;;8.11;100.00;96502.00;4973091;28;20157;-66
2022/12/21 05:13:45;;;;;;;8.63;7.93;;;;;;;8.10;100.00;96498.59;4976091;28;20187;-66
2022/12/21 05:16:14;;;;;;;7.87;7.23;;;;;;;8.06;100.00;96500.06;4977299;28;20248;-66
2022/12/21 05:18:40;;;;;;;8.10;7.50;;;;;;;8.08;100.00;96498.00;4972144;28;20178;-66
2022/12/21 05:21:05;;;;;;;12.17;7.40;;;;;;;8.06;100.00;96500.06;4970790;28;20191;-66
2022/12/21 05:23:31;;;;;;;7.93;7.43;;;;;;;8.10;100.00;96497.78;4969611;28;20255;-66
2022/12/21 05:25:56;;;;;;;20.30;19.00;;;;;;;8.13;100.00;96505.22;4977161;28;20161;-65
2022/12/21 05:28:22;;;;;;;7.83;7.13;;;;;;;8.18;100.00;96503.53;4977164;28;20177;-67
2022/12/21 05:30:47;;;;;;;7.80;7.17;;;;;;;8.14;100.00;96502.34;4959740;28;20207;-65
2022/12/21 05:33:13;;;;;;;7.97;7.37;;;;;;;8.20;100.00;96500.69;4977472;28;20188;-65
2022/12/21 05:35:41;;;;;;;8.20;7.37;;;;;;;8.24;100.00;96502.66;4977297;28;20196;-66
2022/12/21 05:38:08;;;;;;;9.60;8.80;;;;;;;8.27;100.00;96502.22;4977221;28;20260;-66
2022/12/21 05:40:34;;;;;;;7.67;7.07;;;;;;;8.22;100.00;96506.50;4977722;28;20223;-65
2022/12/21 05:43:00;;;;;;;7.87;7.17;;;;;;;8.22;100.00;96507.31;4977146;28;20632;-65
2022/12/21 05:45:26;;;;;;;8.23;7.60;;;;;;;8.24;100.00;96500.06;4975069;28;20188;-65
2022/12/21 05:47:51;;;;;;;8.60;7.80;;;;;;;8.27;100.00;96509.25;4976968;28;20176;-65
2022/12/21 05:50:17;;;;;;;7.67;7.03;;;;;;;8.25;100.00;96508.66;4976677;28;20678;-65
2022/12/21 05:52:42;;;;;;;9.10;8.33;;;;;;;8.18;100.00;96500.13;4976405;28;20185;-65
2022/12/21 05:55:08;;;;;;;8.30;7.67;;;;;;;8.17;100.00;96501.94;4975940;28;20208;-65
2022/12/21 05:57:33;;;;;;;9.23;8.50;;;;;;;8.23;100.00;96502.88;4959412;28;20233;-64
2022/12/21 05:59:59;;;;;;;8.00;7.33;;;;;;;8.21;100.00;96499.69;4976619;28;20196;-64
2022/12/21 06:02:24;;;;;;;8.20;7.70;;;;;;;8.23;100.00;96495.03;4970940;28;20296;-64
2022/12/21 06:04:50;;;;;;;8.20;7.70;;;;;;;8.25;100.00;96499.03;4971699;28;20181;-64
2022/12/21 06:07:15;;;;;;;8.27;7.70;;;;;;;8.25;100.00;96493.00;4976445;28;20169;-64
2022/12/21 06:09:40;;;;;;;7.57;7.17;;;;;;;8.22;100.00;96494.25;4976402;28;20200;-64
2022/12/21 06:12:06;;;;;;;7.47;6.77;;;;;;;8.25;100.00;96493.78;4976687;28;20162;-64
2022/12/21 06:14:31;;;;;;;7.67;7.23;;;;;;;8.30;100.00;96495.81;4976568;28;20255;-64
2022/12/21 06:16:57;;;;;;;7.37;6.87;;;;;;;8.27;100.00;96494.38;4976137;28;20181;-64
2022/12/21 06:19:22;;;;;;;8.90;8.07;;;;;;;8.28;100.00;96503.03;4958788;28;20200;-64
2022/12/21 06:21:48;;;;;;;8.13;7.60;;;;;;;8.31;100.00;96500.00;4976317;28;20200;-64
2022/12/21 06:24:13;;;;;;;11.57;10.40;;;;;;;8.31;100.00;96500.00;4977123;28;20196;-64
2022/12/21 06:26:39;;;;;;;8.60;8.00;;;;;;;8.31;100.00;96506.00;4986307;28;20185;-63
2022/12/21 06:29:04;;;;;;;6.87;6.47;;;;;;;8.34;100.00;96489.13;4992318;28;20674;-64
2022/12/21 06:31:30;;;;;;;7.10;6.70;;;;;;;8.32;100.00;96497.16;4992808;28;20180;-65
2022/12/21 06:33:55;;;;;;;8.17;7.60;;;;;;;8.39;100.00;96509.34;4976334;28;20169;-66
2022/12/21 06:36:20;;;;;;;7.63;7.13;;;;;;;8.37;100.00;96501.72;4976064;28;20209;-67
2022/12/21 06:38:46;;;;;;;8.30;7.60;;;;;;;8.36;100.00;96502.72;4975945;28;20173;-69
2022/12/21 06:41:13;;;;;;;7.77;7.23;;;;;;;8.33;100.00;96509.22;4976060;28;20176;-66
2022/12/21 06:43:40;;;;;;;6.67;6.27;;;;;;;8.36;100.00;96509.81;4978719;28;20207;-67
2022/12/21 06:46:09;;;;;;;8.33;7.63;;;;;;;8.36;100.00;96507.19;4976632;28;20184;-62
2022/12/21 06:48:35;;;;;;;7.00;6.40;;;;;;;8.34;100.00;96507.41;4975661;28;20200;-65
2022/12/21 06:51:05;;;;;;;7.57;7.03;;;;;;;8.33;100.00;96500.56;4975485;28;20279;-68
2022/12/21 06:53:32;;;;;;;7.00;6.57;;;;;;;8.31;100.00;96502.59;4975596;28;20212;-64
2022/12/21 06:56:06;;;;;;;7.07;6.67;;;;;;;8.33;100.00;96504.00;4957453;28;20649;-67
2022/12/21 06:58:32;;;;;;;6.80;6.43;;;;;;;8.35;100.00;96493.34;4975928;28;20267;-66
2022/12/21 07:01:34;;;;;;;8.90;8.07;;;;;;;8.30;100.00;96504.41;4975978;28;20235;-66
2022/12/21 07:04:00;;;;;;;6.20;5.63;;;;;;;8.33;100.00;96506.59;4958046;28;20232;-66
2022/12/21 07:06:28;;;;;;;6.90;6.40;;;;;;;8.36;100.00;96500.13;4975776;28;20183;-66
2022/12/21 07:08:54;;;;;;;6.80;6.30;;;;;;;8.38;100.00;96511.16;4992151;23;20620;-67
2022/12/21 07:11:22;;;;;;;7.13;6.50;;;;;;;8.33;100.00;96511.03;4957637;28;20169;-66
2022/12/21 07:13:50;;;;;;;6.83;6.33;;;;;;;8.34;100.00;96508.19;4975305;28;20176;-66
2022/12/21 07:16:16;;;;;;;6.13;5.63;;;;;;;8.30;100.00;96517.47;4975020;28;20224;-65
2022/12/21 07:18:42;;;;;;;6.77;6.17;;;;;;;8.36;100.00;96515.78;4975127;28;20173;-66
2022/12/21 07:21:11;;;;;;;6.87;6.47;;;;;;;8.36;100.00;96523.63;4974951;28;20173;-66
2022/12/21 07:23:38;;;;;;;7.17;6.47;;;;;;;8.38;100.00;96510.34;4975138;28;20531;-66
2022/12/21 07:26:08;;;;;;;6.70;6.20;;;;;;;8.35;100.00;96519.44;4975090;28;20196;-65
2022/12/21 07:28:34;;;;;;;7.43;6.83;;;;;;;8.32;100.00;96519.88;4974126;28;20184;-65
2022/12/21 07:31:07;;;;;;;11.70;6.80;;;;;;;8.39;100.00;96520.59;4974523;28;20223;-65
2022/12/21 07:33:33;;;;;;;6.97;6.47;;;;;;;8.38;100.00;96526.03;4954384;29;20197;-66
2022/12/21 07:36:00;;;;;;;6.07;5.67;;;;;;;8.33;100.00;96522.25;4971278;28;20220;-65
2022/12/21 07:38:27;;;;;;;7.03;6.53;;;;;;;8.36;100.00;96520.25;4974815;28;20192;-66
2022/12/21 07:40:59;;;;;;;8.40;7.30;;;;;;;8.36;100.00;96526.25;4974701;28;20568;-65
2022/12/21 07:43:24;;;;;;;5.50;5.10;;;;;;;8.38;100.00;96531.25;4974681;28;20165;-65
2022/12/21 07:45:50;;;;;;;6.30;5.73;;;;;;;8.38;100.00;96528.63;4974753;28;20172;-66
2022/12/21 07:48:16;;;;;;;6.40;5.90;;;;;;;8.38;100.00;96523.41;4974579;28;20255;-66
2022/12/21 07:50:41;;;;;;;5.53;5.03;;;;;;;8.44;100.00;96530.38;4974794;28;20247;-66
2022/12/21 07:53:07;;;;;;;6.27;5.67;;;;;;;8.45;100.00;96526.75;4954883;28;20324;-66
2022/12/21 07:55:33;;;;;;;6.20;5.60;;;;;;;8.45;100.00;96527.56;4974111;28;20618;-65
2022/12/21 07:58:00;;;;;;;6.63;5.97;;;;;;;8.43;100.00;96531.38;4974768;28;20192;-65
2022/12/21 08:00:25;;;;;;;6.83;6.10;;;;;;;8.45;100.00;96531.97;4974498;28;20220;-65
2022/12/21 08:02:51;;;;;;;7.53;5.50;;;;;;;8.44;100.00;96544.25;4974616;28;20165;-65
2022/12/21 08:05:19;;;;;;;6.10;5.63;;;;;;;8.50;100.00;96543.38;4974379;28;20181;-66
2022/12/21 08:07:46;;;;;;;6.97;6.30;;;;;;;8.52;100.00;96536.13;4971883;28;20244;-66
2022/12/21 08:10:12;;;;;;;5.97;5.37;;;;;;;8.49;100.00;96533.13;4974368;28;20323;-66
2022/12/21 08:12:37;;;;;;;5.90;5.40;;;;;;;8.45;100.00;96542.44;4974419;28;20697;-66
2022/12/21 08:15:03;;;;;;;7.20;6.40;;;;;;;8.42;100.00;96546.25;4974217;28;20197;-66
2022/12/21 08:17:29;;;;;;;12.07;11.13;;;;;;;8.40;100.00;96539.69;4974133;28;20172;-65
2022/12/21 08:19:54;;;;;;;9.93;9.27;;;;;;;8.43;100.00;96547.06;4974059;28;20671;-65
2022/12/21 08:22:20;;;;;;;11.10;10.20;;;;;;;8.40;100.00;96540.47;4974339;28;20184;-66
2022/12/21 08:24:45;;;;;;;12.17;11.33;;;;;;;8.41;100.00;96542.06;4974204;28;20231;-66
2022/12/21 08:27:11;;;;;;;7.40;6.37;;;;;;;8.41;100.00;96551.72;4974318;28;20181;-66
2022/12/21 08:29:36;;;;;;;6.50;6.00;;;;;;;8.44;100.00;96543.44;4982665;28;20204;-66
2022/12/21 08:32:03;;;;;;;8.97;8.03;;;;;;;8.43;100.00;96547.06;4991253;28;20218;-65
2022/12/21 08:34:28;;;;;;;6.97;6.37;;;;;;;8.43;100.00;96552.28;4992471;28;20772;-67
2022/12/21 08:36:55;;;;;;;6.47;5.73;;;;;;;8.41;100.00;96549.91;4990148;28;20251;-66
2022/12/21 08:39:20;;;;;;;6.90;6.50;;;;;;;8.42;100.00;96550.69;4975304;28;20651;-67
2022/12/21 08:41:46;;;;;;;7.97;7.30;;;;;;;8.44;100.00;96561.72;4992146;28;20184;-66
2022/12/21 08:44:11;;;;;;;6.13;5.57;;;;;;;8.44;100.00;96556.50;4981573;28;20168;-66
2022/12/21 08:46:37;;;;;;;6.27;5.67;;;;;;;8.45;100.00;96561.50;4993133;28;20595;-66
2022/12/21 08:49:02;;;;;;;6.03;5.43;;;;;;;8.41;100.00;96555.13;4982082;28;20760;-66
2022/12/21 08:51:28;;;;;;;5.87;5.37;;;;;;;8.48;100.00;96555.84;4973934;28;20188;-66
2022/12/21 08:53:54;;;;;;;5.03;4.73;;;;;;;8.43;100.00;96567.94;4973803;28;20227;-66
2022/12/21 08:56:20;;;;;;;5.07;4.60;;;;;;;8.50;100.00;96572.09;4973164;28;20218;-66
2022/12/21 08:58:46;;;;;;;6.73;5.30;;;;;;;8.53;100.00;96571.66;4973634;28;20185;-65
2022/12/21 09:01:12;;;;;;;5.73;5.30;;;;;;;8.60;100.00;96574.19;4955622;28;20193;-65
2022/12/21 09:03:37;;;;;;;6.83;5.40;;;;;;;8.60;100.00;96572.38;4973726;28;20192;-65
2022/12/21 09:06:03;;;;;;;8.10;7.50;;;;;;;8.59;100.00;96576.00;4973659;28;20196;-68
2022/12/21 09:08:29;;;;;;;5.77;5.33;;;;;;;8.53;100.00;96566.41;4959063;28;20679;-66
2022/12/21 09:11:02;;;;;;;6.50;5.90;;;;;;;8.55;100.00;96563.59;4954741;28;20213;-65
2022/12/21 09:13:28;;;;;;;6.83;6.33;;;;;;;8.56;100.00;96566.00;4954628;29;20165;-66
2022/12/21 09:15:53;;;;;;;6.33;5.70;;;;;;;8.61;100.00;96571.38;4954235;29;20216;-66
2022/12/21 09:18:19;;;;;;;6.77;6.37;;;;;;;8.65;100.00;96574.31;4954426;29;20201;-66
2022/12/21 09:20:44;;;;;;;10.37;7.30;;;;;;;8.65;100.00;96569.09;4954337;28;20240;-66
2022/12/21 09:23:10;;;;;;;6.93;6.37;;;;;;;8.61;100.00;96573.16;4954601;29;20213;-66
2022/12/21 09:25:37;;;;;;;7.90;7.40;;;;;;;8.48;100.00;96563.66;4954865;29;20169;-67
2022/12/21 09:28:03;;;;;;;7.33;6.83;;;;;;;8.57;100.00;96562.38;4957159;29;20192;-66
2022/12/21 09:30:29;;;;;;;7.83;7.20;;;;;;;8.53;100.00;96555.97;4959704;28;20734;-69
2022/12/21 09:32:55;;;;;;;7.27;6.77;;;;;;;8.57;100.00;96561.56;4959499;29;20608;-66
2022/12/21 09:35:21;;;;;;;7.03;6.40;;;;;;;8.48;100.00;96560.25;4958128;29;20603;-66
2022/12/21 09:37:46;;;;;;;7.53;7.03;;;;;;;8.48;100.00;96557.66;4954178;29;20265;-67
2022/12/21 09:40:13;;;;;;;7.17;6.57;;;;;;;8.49;100.00;96561.84;4954025;29;20201;-67
2022/12/21 09:43:05;;;;;;;6.67;6.27;;;;;;;8.44;100.00;96565.13;4954480;29;20166;-67
2022/12/21 09:46:13;;;;;;;8.03;7.07;;;;;;;8.50;100.00;96571.28;4951704;29;20196;-67
2022/12/21 09:48:45;;;;;;;6.63;6.13;;;;;;;8.54;100.00;96560.19;4950705;28;20201;-68
2022/12/21 09:51:23;;;;;;;7.47;6.97;;;;;;;8.55;100.00;96567.00;4953980;29;20269;-68
2022/12/21 09:53:52;;;;;;;7.53;7.03;;;;;;;8.57;100.00;96566.81;4953932;29;20204;-67
2022/12/21 09:56:21;;;;;;;7.07;6.47;;;;;;;8.67;100.00;96569.69;4953153;29;20202;-68
2022/12/21 09:58:49;;;;;;;7.47;6.97;;;;;;;8.75;100.00;96577.22;4953933;28;20181;-68
2022/12/21 10:01:27;;;;;;;7.50;6.90;;;;;;;8.71;100.00;96574.25;4957193;29;20239;-68
2022/12/21 10:04:38;;;;;;;5.93;5.63;;;;;;;8.76;100.00;96574.38;4957175;29;20193;-64
2022/12/21 10:07:28;;;;;;;6.00;5.60;;;;;;;8.89;100.00;96568.19;4956044;28;20539;-67
2022/12/21 10:10:07;;;;;;;6.90;5.33;;;;;;;8.94;100.00;96578.00;4952205;28;20221;-64
2022/12/21 10:13:11;;;;;;;6.63;6.13;;;;;;;8.91;100.00;96573.22;4955562;29;20199;-67
2022/12/21 10:16:01;;;;;;;6.70;6.20;;;;;;;8.99;100.00;96578.91;4956637;28;20311;-62
2022/12/21 10:18:40;;;;;;;5.03;4.73;;;;;;;9.09;100.00;96570.53;4956866;29;20193;-60
2022/12/21 10:21:22;;;;;;;7.00;6.50;;;;;;;9.18;100.00;96577.06;4956510;29;20181;-62
2022/12/21 10:23:51;;;;;;;6.20;5.70;;;;;;;9.20;100.00;96575.00;4957010;29;20724;-61
2022/12/21 10:26:22;;;;;;;5.63;5.30;;;;;;;9.25;100.00;96577.75;4954536;28;20187;-62
2022/12/21 10:28:53;;;;;;;6.33;5.93;;;;;;;9.14;100.00;96587.16;4956138;29;20233;-61
2022/12/21 10:31:33;;;;;;;5.73;5.33;;;;;;;9.19;100.00;96587.28;4954915;29;20186;-61
2022/12/21 10:34:01;;;;;;;5.53;5.17;;;;;;;9.28;100.00;96584.38;4956099;29;20177;-60
2022/12/21 10:36:37;;;;;;;6.13;5.33;;;;;;;9.33;100.00;96579.25;4956236;29;20271;-60
2022/12/21 10:39:04;;;;;;;8.80;8.30;;;;;;;9.31;100.00;96579.47;4955626;29;20328;-61
2022/12/21 10:41:34;;;;;;;11.77;11.07;;;;;;;9.47;100.00;96573.59;4955894;29;20189;-64
2022/12/21 10:44:00;;;;;;;12.10;11.27;;;;;;;9.52;100.00;96586.03;4949639;29;20581;-62
2022/12/21 10:46:37;;;;;;;6.30;5.90;;;;;;;9.44;100.00;96583.72;4929771;29;20604;-62
2022/12/21 10:49:31;;;;;;;5.33;4.80;;;;;;;9.43;100.00;96582.13;4956323;28;20201;-62
2022/12/21 10:51:56;;;;;;;4.53;4.13;;;;;;;9.37;100.00;96586.44;4937054;29;20652;-62
2022/12/21 10:54:27;;;;;;;5.30;4.90;;;;;;;9.53;100.00;96580.56;4939765;28;20233;-62
2022/12/21 10:56:53;;;;;;;6.20;5.90;;;;;;;9.51;100.00;96574.78;4955829;29;20173;-61
2022/12/21 10:59:38;;;;;;;6.10;5.77;;;;;;;9.48;100.00;96574.41;4956249;29;20216;-62
2022/12/21 11:02:06;;;;;;;9.17;8.53;;;;;;;9.68;100.00;96581.97;4950024;29;20189;-62
2022/12/21 11:04:32;;;;;;;4.83;4.53;;;;;;;9.48;100.00;96575.19;4955948;29;20217;-61
2022/12/21 11:09:34;;;;;;;4.67;4.37;;;;;;;9.49;100.00;96568.94;4952858;28;20249;-62
2022/12/21 11:12:32;;;;;;;8.87;8.27;;;;;;;9.53;100.00;96567.47;4953210;28;20216;-61
2022/12/21 11:15:10;;;;;;;4.20;3.90;;;;;;;9.50;100.00;96564.53;4895242;29;20228;-61
2022/12/21 11:17:35;;;;;;;8.17;7.47;;;;;;;9.74;100.00;96560.13;4955162;29;20181;-58
2022/12/21 11:20:13;;;;;;;8.73;8.03;;;;;;;10.98;100.00;96556.22;4955391;28;20256;-57
2022/12/21 11:22:42;;;;;;;6.03;5.67;;;;;;;10.44;100.00;96563.53;4955933;29;20181;-65
2022/12/21 11:25:19;;;;;;;6.40;5.40;;;;;;;10.02;100.00;96568.09;4955225;29;20189;-63
2022/12/21 11:27:48;;;;;;;6.60;5.60;;;;;;;9.91;100.00;96567.09;4955421;29;20188;-63
2022/12/21 11:30:23;;;;;;;5.90;5.50;;;;;;;9.96;100.00;96561.16;4955018;28;20213;-64
2022/12/21 11:32:50;;;;;;;5.30;5.00;;;;;;;9.89;100.00;96545.56;4955788;29;20204;-63
2022/12/21 11:35:30;;;;;;;6.27;5.37;;;;;;;9.97;100.00;96552.28;4955000;29;20204;-63
2022/12/21 11:38:01;;;;;;;6.20;5.80;;;;;;;9.79;100.00;96547.97;4950363;29;20205;-59
2022/12/21 11:40:29;;;;;;;5.67;5.27;;;;;;;9.72;100.00;96556.94;4955133;29;20215;-61
2022/12/21 11:43:10;;;;;;;7.77;7.37;;;;;;;9.62;100.00;96556.69;4953735;29;20188;-62
2022/12/21 11:45:54;;;;;;;5.87;5.47;;;;;;;9.64;100.00;96558.03;4941686;29;20220;-61
2022/12/21 11:48:44;;;;;;;7.20;6.67;;;;;;;9.71;100.00;96563.19;4955372;29;20264;-60
2022/12/21 11:51:17;;;;;;;5.80;5.40;;;;;;;9.85;100.00;96567.19;4954530;29;20640;-60
2022/12/21 11:53:52;;;;;;;5.77;5.47;;;;;;;9.89;100.00;96555.22;4955162;29;20192;-63
2022/12/21 11:56:28;;;;;;;9.50;8.90;;;;;;;9.97;100.00;96554.91;4954156;29;20642;-63
2022/12/21 11:59:09;;;;;;;6.83;6.50;;;;;;;10.20;100.00;96544.41;4954431;29;20197;-61
2022/12/21 12:02:26;;;;;;;17.63;16.53;;;;;;;10.38;100.00;96546.91;4948734;29;20196;-67